Time;durP1;ratioP1;P1;durP2;ratioP2;P2;SDS_P1;SDS_P2;PMS_P1;PMS_P2;Temp;Humidity;BMP_temperature;BMP_pressure;BME280_temperature;BME280_humidity;BME280_pressure;Samples;Min_cycle;Max_cycle;Signal;HPM_P1;HPM_P2
2021/06/24 00:01:16;;;;;;;39.88;28.95;;;;;;;21.03;82.13;96915.52;127325;1093;114847;-92
2021/06/24 00:03:48;;;;;;;38.55;30.83;;;;;;;21.08;82.20;96909.11;127443;1093;23734;-94
2021/06/24 00:06:19;;;;;;;36.58;27.90;;;;;;;21.20;82.51;96903.70;127332;1093;114729;-94
2021/06/24 00:08:50;;;;;;;35.75;28.05;;;;;;;21.29;82.73;96911.71;127461;1093;25232;-94
2021/06/24 00:11:22;;;;;;;36.88;28.08;;;;;;;21.30;82.21;96919.45;127416;1093;26349;-91
2021/06/24 00:13:53;;;;;;;36.95;28.15;;;;;;;21.30;82.25;96929.45;127332;1092;114480;-93
2021/06/24 00:16:26;;;;;;;38.45;29.05;;;;;;;21.27;82.83;96917.45;127446;1093;23247;-91
2021/06/24 00:18:57;;;;;;;39.23;31.38;;;;;;;21.28;82.71;96913.63;127385;1093;114199;-92
2021/06/24 00:21:28;;;;;;;39.40;29.43;;;;;;;21.27;82.70;96906.66;127497;1093;26296;-93
2021/06/24 00:24:00;;;;;;;36.53;28.63;;;;;;;21.19;82.29;96904.83;127415;1093;114827;-91
2021/06/24 00:26:31;;;;;;;36.65;28.48;;;;;;;21.07;82.68;96896.75;127517;1093;24143;-94
2021/06/24 00:29:02;;;;;;;36.58;27.68;;;;;;;21.09;83.23;96883.72;127458;1093;26467;-91
2021/06/24 00:31:34;;;;;;;35.43;26.50;;;;;;;21.21;83.60;96886.40;127358;1093;114226;-92
2021/06/24 00:34:05;;;;;;;29.87;24.77;;;;;;;21.30;83.27;96876.31;127410;1092;23087;-92
2021/06/24 00:36:37;;;;;;;35.10;27.93;;;;;;;21.39;83.40;96856.48;127327;1093;114859;-91
2021/06/24 00:39:08;;;;;;;36.03;28.60;;;;;;;21.41;82.95;96856.96;127436;1093;23518;-91
2021/06/24 00:41:41;;;;;;;35.67;28.03;;;;;;;21.41;83.10;96863.14;127328;1093;114432;-90
2021/06/24 00:44:13;;;;;;;35.53;27.00;;;;;;;21.39;82.82;96859.97;127432;1092;24073;-94
2021/06/24 00:46:44;;;;;;;33.10;25.68;;;;;;;21.39;82.74;96856.48;127430;1093;26014;-94
2021/06/24 00:49:16;;;;;;;32.20;25.15;;;;;;;21.30;82.44;96849.34;127347;1092;114152;-92
2021/06/24 00:51:48;;;;;;;33.25;26.13;;;;;;;21.34;82.73;96847.52;127436;1093;22969;-92
2021/06/24 00:54:19;;;;;;;37.68;28.38;;;;;;;21.38;82.78;96838.73;127340;1093;114157;-93
2021/06/24 00:56:51;;;;;;;35.85;29.13;;;;;;;21.41;82.58;96851.56;127441;1091;23465;-90
2021/06/24 00:59:24;;;;;;;36.25;28.55;;;;;;;21.36;82.04;96859.88;127452;1093;26965;-93
2021/06/24 01:01:56;;;;;;;37.45;29.80;;;;;;;21.07;81.85;96852.84;127386;1092;114541;-93
2021/06/24 01:04:27;;;;;;;35.05;28.65;;;;;;;20.81;82.03;96842.42;127519;1093;24773;-91
2021/06/24 01:06:59;;;;;;;38.80;30.05;;;;;;;20.66;82.97;96849.28;127411;1093;114141;-91
2021/06/24 01:09:30;;;;;;;36.20;29.18;;;;;;;20.58;83.38;96842.90;127495;1093;26922;-93
2021/06/24 01:12:04;;;;;;;37.38;30.55;;;;;;;20.55;83.41;96843.58;127329;1093;114626;-91
2021/06/24 01:14:35;;;;;;;40.05;30.48;;;;;;;20.58;84.10;96837.52;127450;1092;25906;-90
2021/06/24 01:17:07;;;;;;;42.55;32.25;;;;;;;20.57;83.90;96825.17;127437;1093;34543;-89
2021/06/24 01:19:39;;;;;;;42.20;32.75;;;;;;;20.62;84.36;96821.45;127385;1093;114135;-90
2021/06/24 01:22:12;;;;;;;37.18;28.83;;;;;;;20.72;84.15;96829.88;127439;1093;22869;-91
2021/06/24 01:24:44;;;;;;;34.48;25.50;;;;;;;20.74;83.88;96830.31;127326;1093;114190;-96
2021/06/24 01:27:15;;;;;;;33.58;27.15;;;;;;;20.62;82.97;96830.32;127449;1093;23881;-92
2021/06/24 01:29:46;;;;;;;38.13;28.15;;;;;;;20.45;83.03;96822.47;127365;1093;114329;-93
2021/06/24 01:32:18;;;;;;;38.40;30.00;;;;;;;20.27;83.03;96831.83;127434;1093;23503;-91
2021/06/24 01:34:50;;;;;;;38.23;29.35;;;;;;;20.18;83.87;96829.27;127480;1092;26311;-92
2021/06/24 01:37:21;;;;;;;45.58;31.45;;;;;;;20.18;84.30;96831.95;127330;1093;114325;-90
2021/06/24 01:39:52;;;;;;;36.73;30.13;;;;;;;20.22;84.46;96824.77;127462;1093;24457;-94
2021/06/24 01:42:23;;;;;;;35.80;26.70;;;;;;;20.34;84.57;96826.69;127344;1093;114577;-96
2021/06/24 01:44:55;;;;;;;33.43;27.10;;;;;;;20.44;84.42;96820.91;127433;1093;23056;-92
2021/06/24 01:47:26;;;;;;;36.20;27.55;;;;;;;20.50;83.92;96822.23;127428;1093;22815;-94
2021/06/24 01:49:57;;;;;;;38.38;29.88;;;;;;;20.51;83.28;96820.33;127420;1093;113912;-92
2021/06/24 01:52:29;;;;;;;40.73;32.08;;;;;;;20.55;83.64;96819.34;127551;1093;23543;-91
2021/06/24 01:55:00;;;;;;;36.65;30.03;;;;;;;20.59;83.51;96827.52;127380;1093;115001;-92
2021/06/24 01:57:32;;;;;;;38.78;30.18;;;;;;;20.59;83.76;96820.23;127557;1093;24508;-96
2021/06/24 02:00:05;;;;;;;35.55;29.63;;;;;;;20.64;83.55;96819.98;127411;1093;114784;-91
2021/06/24 02:02:36;;;;;;;38.25;28.08;;;;;;;20.70;83.62;96815.96;127476;1093;22768;-91
2021/06/24 02:05:09;;;;;;;37.48;29.90;;;;;;;20.70;83.27;96801.70;127449;1093;23501;-91
2021/06/24 02:07:43;;;;;;;40.88;31.38;;;;;;;20.66;82.89;96804.27;127343;1092;114207;-90
2021/06/24 02:10:15;;;;;;;39.88;31.78;;;;;;;20.61;82.81;96799.12;127441;1093;26321;-94
2021/06/24 02:12:47;;;;;;;41.43;30.50;;;;;;;20.61;82.96;96791.03;127360;1093;114342;-94
2021/06/24 02:15:19;;;;;;;37.08;30.08;;;;;;;20.62;83.13;96805.29;127484;1093;26372;-91
2021/06/24 02:17:50;;;;;;;41.58;31.43;;;;;;;20.61;83.37;96798.33;127371;1092;114524;-91
2021/06/24 02:20:21;;;;;;;35.93;28.33;;;;;;;20.64;83.75;96798.44;127431;1093;23832;-92
2021/06/24 02:22:53;;;;;;;35.77;29.53;;;;;;;20.63;83.29;96802.25;127517;1093;22796;-91
2021/06/24 02:25:26;;;;;;;43.25;31.63;;;;;;;20.59;83.04;96806.75;127468;1093;114162;-91
2021/06/24 02:27:58;;;;;;;43.93;32.58;;;;;;;20.57;83.16;96811.70;127511;1093;27867;-91
2021/06/24 02:30:32;;;;;;;39.80;30.18;;;;;;;20.56;83.33;96810.13;127421;1092;114455;-90
2021/06/24 02:33:05;;;;;;;40.00;31.08;;;;;;;20.27;82.31;96812.98;127441;1093;24813;-91
2021/06/24 02:35:38;;;;;;;34.25;28.33;;;;;;;20.11;83.32;96813.64;127356;1093;115097;-91
2021/06/24 02:38:10;;;;;;;40.63;30.40;;;;;;;20.14;83.39;96818.38;127457;1093;22899;-90
2021/06/24 02:40:42;;;;;;;41.40;31.60;;;;;;;20.22;83.72;96818.60;127422;1093;25573;-90
2021/06/24 02:43:13;;;;;;;39.93;32.17;;;;;;;20.26;83.63;96822.19;127381;1093;114469;-92
2021/06/24 02:45:45;;;;;;;36.90;29.10;;;;;;;20.13;82.98;96819.51;127470;1092;24358;-91
2021/06/24 02:48:16;;;;;;;40.25;30.65;;;;;;;19.97;83.52;96821.25;127493;1093;114305;-92
2021/06/24 02:50:48;;;;;;;40.38;31.65;;;;;;;19.96;84.21;96816.98;127462;1093;23438;-91
2021/06/24 02:53:19;;;;;;;46.33;34.13;;;;;;;20.06;84.84;96811.19;127560;1093;23552;-91
2021/06/24 02:55:51;;;;;;;41.38;32.08;;;;;;;20.18;84.82;96812.33;127386;1093;113980;-90
2021/06/24 02:58:22;;;;;;;36.50;28.65;;;;;;;20.26;84.66;96808.73;127615;1093;23413;-90
2021/06/24 03:00:54;;;;;;;40.45;30.53;;;;;;;20.33;84.68;96801.67;127360;1092;114760;-92
2021/06/24 03:03:25;;;;;;;36.08;28.73;;;;;;;20.42;84.60;96805.08;127492;1093;26755;-93
2021/06/24 03:05:56;;;;;;;41.75;31.68;;;;;;;20.47;84.58;96795.98;127445;1092;114712;-93
2021/06/24 03:08:28;;;;;;;43.60;33.35;;;;;;;20.50;84.70;96789.91;127651;1093;23876;-95
2021/06/24 03:10:59;;;;;;;42.50;32.88;;;;;;;20.56;84.34;96791.28;127485;1093;37270;-90
2021/06/24 03:13:31;;;;;;;44.18;32.80;;;;;;;20.58;84.62;96783.64;127502;1093;114522;-90
2021/06/24 03:16:04;;;;;;;41.08;31.53;;;;;;;20.61;84.28;96787.56;127502;1093;23160;-90
2021/06/24 03:18:35;;;;;;;39.78;31.20;;;;;;;20.62;84.63;96800.69;127371;1093;114269;-91
2021/06/24 03:21:07;;;;;;;37.58;29.73;;;;;;;20.62;83.88;96791.82;127427;1093;23973;-90
2021/06/24 03:23:38;;;;;;;43.18;32.35;;;;;;;20.65;84.89;96791.14;127359;1093;114988;-91
2021/06/24 03:26:10;;;;;;;50.78;34.58;;;;;;;20.69;84.67;96795.53;127423;1093;24418;-91
2021/06/24 03:28:41;;;;;;;45.73;34.15;;;;;;;20.68;84.70;96791.23;127445;1093;25950;-94
2021/06/24 03:31:13;;;;;;;42.70;32.13;;;;;;;20.74;85.09;96787.20;127405;1093;114302;-94
2021/06/24 03:33:44;;;;;;;39.00;29.88;;;;;;;20.80;84.41;96784.27;127463;1093;29023;-91
2021/06/24 03:36:16;;;;;;;36.30;29.13;;;;;;;20.81;84.51;96785.84;127486;1093;115322;-89
2021/06/24 03:38:48;;;;;;;37.03;28.03;;;;;;;20.81;84.06;96780.45;127566;1092;24033;-90
2021/06/24 03:41:24;;;;;;;37.60;31.00;;;;;;;20.78;83.48;96773.05;127491;1093;24373;-90
2021/06/24 03:43:57;;;;;;;43.25;33.18;;;;;;;20.60;83.15;96770.61;127435;1093;114387;-93
2021/06/24 03:46:29;;;;;;;42.53;31.90;;;;;;;20.44;83.44;96767.04;127467;1092;23894;-93
2021/06/24 03:49:00;;;;;;;43.35;31.75;;;;;;;20.44;84.02;96775.12;127409;1093;114039;-89
2021/06/24 03:51:32;;;;;;;38.48;29.70;;;;;;;20.48;84.44;96767.92;127544;1093;24273;-90
2021/06/24 03:54:04;;;;;;;42.05;30.10;;;;;;;20.55;84.36;96762.77;127333;1093;115172;-90
2021/06/24 03:56:35;;;;;;;46.73;33.13;;;;;;;20.48;84.54;96751.77;127473;1093;25353;-90
2021/06/24 03:59:06;;;;;;;41.28;32.45;;;;;;;20.54;85.15;96755.00;127495;1093;26348;-89
2021/06/24 04:01:42;;;;;;;44.33;34.40;;;;;;;20.54;85.08;96760.39;127392;1092;114028;-90
2021/06/24 04:04:14;;;;;;;42.93;33.10;;;;;;;20.55;85.45;96762.77;127474;1093;24159;-92
2021/06/24 04:06:45;;;;;;;40.95;32.03;;;;;;;20.64;85.86;96751.86;127343;1092;114540;-89
2021/06/24 04:09:17;;;;;;;43.80;32.17;;;;;;;20.80;86.16;96749.23;127429;1093;25553;-95
2021/06/24 04:11:48;;;;;;;39.90;30.38;;;;;;;20.97;86.75;96748.96;127429;1092;114230;-90
2021/06/24 04:14:19;;;;;;;42.35;31.60;;;;;;;21.16;86.84;96737.57;127591;1093;24170;-91
2021/06/24 04:16:51;;;;;;;44.13;34.13;;;;;;;21.36;86.40;96742.00;127529;1092;28839;-90
2021/06/24 04:19:23;;;;;;;43.18;33.33;;;;;;;21.44;86.19;96738.38;127412;1093;114085;-91
2021/06/24 04:21:54;;;;;;;43.38;33.73;;;;;;;21.39;85.77;96752.09;127406;1093;22777;-91
2021/06/24 04:24:26;;;;;;;42.47;33.20;;;;;;;21.38;86.30;96737.03;127361;1092;114556;-93
2021/06/24 04:26:57;;;;;;;41.43;32.50;;;;;;;21.44;86.20;96745.68;127484;1092;23919;-93
2021/06/24 04:29:28;;;;;;;45.70;33.90;;;;;;;21.43;86.39;96738.72;127521;1092;22802;-90
2021/06/24 04:32:00;;;;;;;44.07;34.20;;;;;;;21.43;86.12;96744.90;127538;1093;114592;-91
2021/06/24 04:34:31;;;;;;;46.98;34.70;;;;;;;21.39;86.03;96751.30;127695;1093;24571;-89
2021/06/24 04:37:03;;;;;;;47.70;34.93;;;;;;;21.40;85.98;96742.11;127342;1093;114256;-91
2021/06/24 04:39:35;;;;;;;42.38;33.28;;;;;;;21.33;86.61;96743.47;127516;1093;24398;-90
2021/06/24 04:42:07;;;;;;;37.85;30.35;;;;;;;21.37;86.50;96748.17;127473;1093;115098;-89
2021/06/24 04:44:38;;;;;;;41.93;30.95;;;;;;;21.37;86.62;96748.17;127542;1093;24057;-90
2021/06/24 04:47:09;;;;;;;40.95;29.08;;;;;;;21.50;87.01;96741.59;127581;1092;23666;-90
2021/06/24 04:49:41;;;;;;;38.88;29.45;;;;;;;21.57;86.87;96739.09;127532;1092;114135;-91
2021/06/24 04:52:15;;;;;;;39.08;31.23;;;;;;;21.67;86.50;96738.56;127582;1093;23149;-91
2021/06/24 04:54:47;;;;;;;41.43;32.90;;;;;;;21.72;86.22;96746.42;127501;1093;114120;-90
2021/06/24 04:57:18;;;;;;;40.45;32.88;;;;;;;21.75;85.92;96736.84;127635;1093;24326;-90
2021/06/24 04:59:50;;;;;;;40.05;31.18;;;;;;;21.81;86.19;96732.74;127527;1093;114268;-89
2021/06/24 05:02:21;;;;;;;38.55;30.70;;;;;;;21.86;85.73;96743.30;127638;1092;25480;-89
2021/06/24 05:04:55;;;;;;;44.30;32.73;;;;;;;21.93;85.90;96738.84;127645;1093;27121;-89
2021/06/24 05:07:26;;;;;;;37.35;29.15;;;;;;;22.08;85.91;96737.30;127482;1093;114594;-89
2021/06/24 05:09:58;;;;;;;39.53;30.18;;;;;;;22.25;85.63;96738.88;127638;1093;23420;-89
2021/06/24 05:12:31;;;;;;;38.85;30.70;;;;;;;22.45;85.75;96732.39;127577;1092;114872;-90
2021/06/24 05:15:02;;;;;;;42.80;32.40;;;;;;;22.62;84.96;96736.61;127575;1093;22879;-89
2021/06/24 05:17:33;;;;;;;39.53;32.45;;;;;;;22.78;85.10;96741.97;127606;1093;25772;-90
2021/06/24 05:20:07;;;;;;;41.18;30.98;;;;;;;22.95;84.72;96738.91;127510;1093;114552;-89
2021/06/24 05:22:39;;;;;;;41.35;30.85;;;;;;;23.26;84.88;96737.19;127576;1093;25302;-92
2021/06/24 05:25:13;;;;;;;37.93;29.40;;;;;;;23.62;84.92;96738.66;127384;1092;114234;-90
2021/06/24 05:27:44;;;;;;;43.83;33.48;;;;;;;24.09;83.84;96745.66;127528;1093;22829;-92
2021/06/24 05:30:18;;;;;;;42.08;32.78;;;;;;;24.43;83.09;96747.38;127424;1093;114358;-91
2021/06/24 05:32:49;;;;;;;42.95;34.18;;;;;;;24.88;82.30;96740.25;127494;1093;24631;-96
2021/06/24 05:35:21;;;;;;;39.30;30.03;;;;;;;25.25;80.89;96743.06;127510;1093;22859;-90
2021/06/24 05:37:53;;;;;;;36.18;30.10;;;;;;;25.56;79.55;96755.42;127505;1093;114261;-89
2021/06/24 05:40:25;;;;;;;41.75;32.18;;;;;;;25.86;78.57;96741.78;127613;1093;23293;-89
2021/06/24 05:42:57;;;;;;;41.20;32.98;;;;;;;26.37;78.66;96740.28;127525;1093;114051;-89
2021/06/24 05:45:28;;;;;;;36.93;30.28;;;;;;;26.89;77.89;96739.05;127628;1093;23680;-90
2021/06/24 05:48:00;;;;;;;39.43;29.48;;;;;;;27.47;76.82;96743.58;127551;1093;114849;-90
2021/06/24 05:50:33;;;;;;;33.45;28.78;;;;;;;28.08;75.55;96750.70;127651;1093;24419;-89
2021/06/24 05:53:05;;;;;;;32.58;27.95;;;;;;;28.69;74.52;96745.20;127546;1093;24085;-88
2021/06/24 05:55:48;;;;;;;35.75;29.15;;;;;;;28.76;72.41;96739.75;127489;1093;114684;-89
2021/06/24 05:58:22;;;;;;;35.13;28.98;;;;;;;28.73;71.47;96743.27;127557;1092;23084;-96
2021/06/24 06:00:56;;;;;;;35.58;29.83;;;;;;;28.87;70.78;96737.02;127431;1093;114174;-90
2021/06/24 06:03:28;;;;;;;33.68;27.55;;;;;;;29.03;69.94;96740.08;127528;1093;24402;-91
2021/06/24 06:06:00;;;;;;;33.33;28.27;;;;;;;29.40;70.11;96739.52;127464;1093;115172;-93
2021/06/24 06:08:32;;;;;;;33.70;28.50;;;;;;;29.81;69.02;96752.58;127571;1093;24922;-91
2021/06/24 06:11:03;;;;;;;34.40;28.38;;;;;;;29.79;66.66;96744.01;127432;1093;26814;-90
2021/06/24 06:13:35;;;;;;;36.60;28.80;;;;;;;29.57;66.36;96742.60;127374;1093;114083;-91
2021/06/24 06:16:08;;;;;;;30.78;27.43;;;;;;;29.52;66.46;96743.78;127531;1093;22949;-90
2021/06/24 06:18:39;;;;;;;33.00;28.50;;;;;;;29.38;65.17;96741.88;127423;1093;114229;-91
2021/06/24 06:21:14;;;;;;;30.63;25.48;;;;;;;29.65;65.87;96744.88;127508;1093;25982;-90
2021/06/24 06:23:46;;;;;;;33.98;26.80;;;;;;;30.08;65.20;96756.32;127355;1093;114718;-90
2021/06/24 06:26:17;;;;;;;31.98;27.03;;;;;;;30.16;64.60;96759.79;127520;1093;22957;-90
2021/06/24 06:28:48;;;;;;;31.43;26.38;;;;;;;30.70;64.39;96751.91;127540;1093;23373;-91
2021/06/24 06:31:23;;;;;;;31.73;27.20;;;;;;;30.51;62.73;96750.48;127379;1093;114946;-89
2021/06/24 06:33:54;;;;;;;33.00;26.60;;;;;;;30.75;63.08;96753.42;127514;1093;25912;-91
2021/06/24 06:36:26;;;;;;;29.85;25.10;;;;;;;31.01;61.94;96752.75;127366;1093;115230;-90
2021/06/24 06:38:57;;;;;;;32.30;25.73;;;;;;;31.10;61.53;96753.02;127624;1093;24046;-90
2021/06/24 06:41:29;;;;;;;31.05;25.58;;;;;;;31.04;60.37;96749.19;127580;1093;25443;-93
2021/06/24 06:44:00;;;;;;;32.28;25.70;;;;;;;30.99;60.95;96753.16;127469;1093;113923;-92
2021/06/24 06:46:32;;;;;;;29.55;24.70;;;;;;;31.42;60.98;96758.14;127632;1092;23493;-92
2021/06/24 06:49:04;;;;;;;31.48;25.45;;;;;;;31.43;59.13;96745.22;127396;1093;114788;-90
2021/06/24 06:51:35;;;;;;;32.13;25.40;;;;;;;31.55;59.93;96741.92;127603;1092;24481;-90
2021/06/24 06:54:07;;;;;;;27.35;24.45;;;;;;;32.07;59.87;96738.81;127427;1093;114219;-89
2021/06/24 06:56:39;;;;;;;32.00;24.43;;;;;;;32.53;58.73;96742.80;127525;1093;26230;-90
2021/06/24 06:59:10;;;;;;;30.90;25.85;;;;;;;32.25;57.33;96746.78;127568;1093;24559;-89
2021/06/24 07:01:41;;;;;;;27.98;24.20;;;;;;;32.20;57.79;96740.55;127495;1093;114254;-91
2021/06/24 07:04:13;;;;;;;30.18;25.28;;;;;;;32.91;57.30;96732.30;127589;1093;23566;-92
2021/06/24 07:06:44;;;;;;;30.30;24.85;;;;;;;32.66;55.26;96741.00;127350;1092;114128;-91
2021/06/24 07:09:16;;;;;;;27.25;23.30;;;;;;;32.49;56.61;96731.86;127461;1093;23713;-91
2021/06/24 07:11:47;;;;;;;27.15;24.30;;;;;;;33.26;56.09;96730.82;127320;1093;115133;-92
2021/06/24 07:14:21;;;;;;;30.33;24.55;;;;;;;33.94;56.08;96738.41;127581;1093;26024;-89
2021/06/24 07:16:52;;;;;;;29.58;23.25;;;;;;;34.10;54.34;96732.90;127595;1092;23964;-90
2021/06/24 07:19:24;;;;;;;26.85;23.28;;;;;;;34.09;53.81;96730.58;127557;1093;114670;-90
2021/06/24 07:21:56;;;;;;;28.35;24.13;;;;;;;34.44;53.36;96740.72;127437;1093;26308;-92
2021/06/24 07:24:27;;;;;;;27.60;23.60;;;;;;;34.17;52.91;96727.20;127395;1093;114675;-94
2021/06/24 07:26:59;;;;;;;26.15;23.38;;;;;;;34.45;53.22;96736.75;127575;1093;22851;-91
2021/06/24 07:29:31;;;;;;;25.80;23.08;;;;;;;35.09;52.32;96748.08;127686;1093;25883;-91
2021/06/24 07:32:02;;;;;;;25.60;22.68;;;;;;;35.38;52.09;96748.06;127510;1093;114724;-91
2021/06/24 07:34:34;;;;;;;27.38;22.58;;;;;;;35.25;50.99;96745.24;127565;1093;42416;-90
2021/06/24 07:37:06;;;;;;;26.73;22.98;;;;;;;35.16;49.08;96749.84;127373;1093;114037;-91
2021/06/24 07:39:37;;;;;;;27.55;24.65;;;;;;;34.30;49.56;96752.06;127486;1093;27166;-92
2021/06/24 07:42:09;;;;;;;30.10;23.30;;;;;;;34.27;50.93;96749.41;127426;1093;114570;-90
2021/06/24 07:44:41;;;;;;;26.88;24.00;;;;;;;34.11;50.70;96750.95;127479;1093;25447;-95
2021/06/24 07:47:13;;;;;;;25.40;22.03;;;;;;;34.30;50.13;96745.78;127512;1092;24200;-93
2021/06/24 07:49:45;;;;;;;24.98;20.40;;;;;;;34.43;51.41;96749.41;127416;1093;114041;-92
2021/06/24 07:52:18;;;;;;;26.65;20.90;;;;;;;35.42;51.03;96742.43;127564;1093;24315;-92
2021/06/24 07:54:49;;;;;;;25.38;22.68;;;;;;;35.89;49.23;96745.34;127505;1093;114072;-92
2021/06/24 07:57:21;;;;;;;24.65;22.05;;;;;;;36.37;49.27;96757.25;127638;1092;23571;-92
2021/06/24 07:59:53;;;;;;;24.23;20.65;;;;;;;36.98;48.66;96742.91;127517;1093;114225;-90
2021/06/24 08:02:24;;;;;;;23.50;20.88;;;;;;;37.40;46.61;96742.59;127612;1093;23150;-90
2021/06/24 08:04:55;;;;;;;26.28;20.28;;;;;;;36.67;46.61;96737.27;127620;1091;22809;-89
2021/06/24 08:07:27;;;;;;;24.25;21.45;;;;;;;36.36;46.67;96734.39;127500;1092;114415;-90
2021/06/24 08:10:02;;;;;;;21.60;19.35;;;;;;;35.93;45.53;96744.03;127664;1093;26280;-92
2021/06/24 08:12:34;;;;;;;23.38;20.98;;;;;;;35.37;46.28;96744.53;127511;1093;115232;-90
2021/06/24 08:15:07;;;;;;;22.93;20.63;;;;;;;35.63;48.15;96744.56;127703;1093;22822;-89
2021/06/24 08:17:39;;;;;;;23.65;21.03;;;;;;;36.21;47.23;96744.34;127643;1093;25124;-91
2021/06/24 08:20:13;;;;;;;25.23;21.15;;;;;;;36.25;45.56;96739.46;127523;1091;113888;-91
2021/06/24 08:22:45;;;;;;;23.18;20.70;;;;;;;35.76;46.47;96739.83;127652;1092;24663;-91
2021/06/24 08:25:18;;;;;;;25.00;20.65;;;;;;;36.28;47.55;96744.09;127534;1093;114883;-91
2021/06/24 08:27:50;;;;;;;23.83;19.85;;;;;;;36.62;46.15;96745.37;127581;1093;24553;-91
2021/06/24 08:30:23;;;;;;;22.85;20.45;;;;;;;37.10;45.77;96746.84;127563;1093;114609;-90
2021/06/24 08:32:55;;;;;;;22.10;19.85;;;;;;;37.59;44.70;96738.70;127646;1093;24302;-91
2021/06/24 08:35:27;;;;;;;22.68;19.63;;;;;;;37.47;42.88;96742.33;127647;1093;24077;-91
2021/06/24 08:37:59;;;;;;;20.93;18.73;;;;;;;37.00;43.53;96745.98;127558;1093;114233;-92
2021/06/24 08:40:31;;;;;;;19.90;17.80;;;;;;;37.29;42.91;96747.74;127679;1092;22834;-91
2021/06/24 08:43:03;;;;;;;20.05;17.65;;;;;;;36.50;42.80;96744.19;127512;1093;114461;-90
2021/06/24 08:45:35;;;;;;;20.83;18.50;;;;;;;36.27;42.99;96748.84;127602;1092;25079;-91
2021/06/24 08:48:12;;;;;;;23.75;19.43;;;;;;;35.83;44.46;96756.14;127519;1093;114270;-89
2021/06/24 08:50:50;;;;;;;22.93;19.50;;;;;;;36.13;44.71;96754.05;127645;1093;28037;-90
2021/06/24 08:53:23;;;;;;;21.50;17.73;;;;;;;36.16;43.08;96755.92;127607;1093;25699;-91
2021/06/24 08:55:56;;;;;;;22.80;19.03;;;;;;;35.51;44.19;96753.59;127504;1093;114048;-91
2021/06/24 08:58:28;;;;;;;22.20;19.13;;;;;;;35.31;45.33;96746.23;127746;1093;24719;-90
2021/06/24 09:01:01;;;;;;;23.00;20.48;;;;;;;35.40;46.54;96760.19;127528;1093;114087;-91
2021/06/24 09:03:33;;;;;;;25.33;19.48;;;;;;;35.48;46.28;96749.73;127647;1093;24613;-91
2021/06/24 09:06:06;;;;;;;22.33;19.95;;;;;;;35.54;46.20;96752.71;127468;1092;114476;-93
2021/06/24 09:08:45;;;;;;;23.60;19.50;;;;;;;35.36;45.92;96756.77;127595;1093;26880;-91
2021/06/24 09:11:23;;;;;;;22.77;18.57;;;;;;;35.26;45.83;96749.55;127689;1092;27179;-91
2021/06/24 09:14:05;;;;;;;21.08;18.85;;;;;;;34.39;45.11;96748.73;127484;1093;114114;-90
2021/06/24 09:16:40;;;;;;;25.83;20.23;;;;;;;33.70;46.96;96753.46;127640;1093;24594;-91
2021/06/24 09:19:22;;;;;;;23.20;19.93;;;;;;;33.24;46.80;96744.21;127539;1092;114210;-92
2021/06/24 09:22:01;;;;;;;20.63;18.43;;;;;;;32.65;48.29;96742.16;127637;1093;26187;-91
2021/06/24 09:24:35;;;;;;;25.08;20.15;;;;;;;32.67;49.50;96737.83;127531;1093;114892;-92
2021/06/24 09:27:24;;;;;;;23.63;19.83;;;;;;;33.09;50.38;96740.20;127637;1093;25464;-90
2021/06/24 09:30:07;;;;;;;28.85;20.65;;;;;;;33.55;50.43;96737.28;127495;1093;114231;-91
2021/06/24 09:32:42;;;;;;;22.75;19.15;;;;;;;33.61;49.20;96740.29;127596;1092;25410;-90
2021/06/24 09:35:24;;;;;;;24.20;19.50;;;;;;;33.04;48.47;96741.45;127630;1092;24974;-90
2021/06/24 09:38:04;;;;;;;22.53;19.98;;;;;;;32.62;50.29;96746.53;127513;1093;114199;-90
2021/06/24 09:40:39;;;;;;;;;;;;;;;32.47;49.43;96748.75;127604;1092;27619;-92
2021/06/24 09:43:31;;;;;;;20.33;18.20;;;;;;;32.00;49.66;96741.69;127506;1093;99998;-92
2021/06/24 09:46:06;;;;;;;23.18;19.73;;;;;;;31.97;51.57;96737.04;127709;1093;25580;-90
2021/06/24 09:48:41;;;;;;;22.40;18.88;;;;;;;32.42;51.97;96735.52;127511;1093;114694;-90
2021/06/24 09:51:18;;;;;;;22.58;17.55;;;;;;;32.79;51.35;96728.95;127658;1093;24890;-91
2021/06/24 09:53:55;;;;;;;22.00;18.28;;;;;;;33.12;51.10;96728.36;127615;1093;114303;-91
2021/06/24 09:56:33;;;;;;;19.30;16.13;;;;;;;33.22;49.36;96732.84;127656;1093;28318;-92
2021/06/24 09:59:06;;;;;;;21.85;16.13;;;;;;;32.81;48.70;96728.58;127614;1093;26277;-92
2021/06/24 10:01:41;;;;;;;20.55;15.80;;;;;;;32.86;49.78;96725.33;127579;1093;114053;-91
2021/06/24 10:04:22;;;;;;;21.53;15.63;;;;;;;32.88;48.31;96725.69;127593;1093;24695;-93
2021/06/24 10:06:55;;;;;;;18.55;15.93;;;;;;;32.51;48.59;96718.49;127562;1093;114701;-91
2021/06/24 10:09:31;;;;;;;18.18;14.90;;;;;;;32.38;49.03;96721.09;127686;1093;26293;-92
2021/06/24 10:12:03;;;;;;;22.23;15.58;;;;;;;32.35;49.29;96727.40;127460;1093;114399;-93
2021/06/24 10:14:35;;;;;;;19.85;14.55;;;;;;;32.53;49.67;96718.88;127601;1092;25355;-92
2021/06/24 10:17:08;;;;;;;21.43;14.70;;;;;;;32.82;49.58;96721.89;127622;1093;22838;-91
2021/06/24 10:19:41;;;;;;;19.43;14.60;;;;;;;33.01;49.64;96710.12;127486;1093;114201;-92
2021/06/24 10:22:16;;;;;;;19.93;14.00;;;;;;;33.24;49.40;96700.25;127471;1093;24759;-93
2021/06/24 10:24:53;;;;;;;19.93;15.58;;;;;;;33.41;49.23;96704.61;127513;1092;114521;-92
2021/06/24 10:27:31;;;;;;;16.75;14.95;;;;;;;33.28;47.36;96706.43;127662;1092;25024;-92
2021/06/24 10:30:13;;;;;;;17.88;14.60;;;;;;;33.11;48.89;96704.84;127538;1093;115129;-92
2021/06/24 10:32:57;;;;;;;20.73;14.60;;;;;;;33.13;48.46;96707.94;127596;1093;25260;-91
2021/06/24 10:35:30;;;;;;;19.60;14.13;;;;;;;33.18;48.52;96697.20;127622;1093;23460;-92
2021/06/24 10:38:04;;;;;;;23.60;13.95;;;;;;;33.34;48.66;96693.75;127593;1093;113342;-91
2021/06/24 10:40:37;;;;;;;20.43;14.40;;;;;;;33.41;48.40;96701.09;127616;1093;27138;-92
2021/06/24 10:43:11;;;;;;;20.60;14.33;;;;;;;33.34;47.92;96700.02;127463;1093;114096;-92
2021/06/24 10:45:46;;;;;;;26.65;15.08;;;;;;;33.03;47.71;96693.98;127606;1093;26839;-92
2021/06/24 10:48:30;;;;;;;14.20;11.65;;;;;;;32.85;47.24;96696.33;127532;1093;114272;-91
2021/06/24 10:51:03;;;;;;;36.88;13.53;;;;;;;32.46;46.49;96692.31;127768;1093;23559;-91
2021/06/24 10:53:47;;;;;;;17.78;12.30;;;;;;;32.46;46.95;96686.05;127590;1093;27487;-92
2021/06/24 10:56:42;;;;;;;20.25;11.48;;;;;;;32.47;47.38;96682.11;127536;1093;114396;-92
2021/06/24 10:59:29;;;;;;;16.13;12.68;;;;;;;32.37;47.33;96683.07;127545;1093;23852;-96
2021/06/24 11:02:15;;;;;;;18.50;14.83;;;;;;;32.51;47.97;96682.03;127588;1092;114059;-91
2021/06/24 11:04:48;;;;;;;18.25;14.53;;;;;;;32.59;49.17;96677.98;127638;1093;26356;-91
2021/06/24 11:07:39;;;;;;;19.98;14.23;;;;;;;32.81;49.17;96683.84;127626;1093;113719;-87
2021/06/24 11:10:29;;;;;;;18.70;14.68;;;;;;;32.78;48.85;96677.20;127691;1092;28806;-88
2021/06/24 11:13:11;;;;;;;19.73;15.55;;;;;;;32.33;48.73;96674.14;127720;1093;114327;-90
2021/06/24 11:15:52;;;;;;;22.13;15.88;;;;;;;32.39;49.66;96667.77;127601;1093;22822;-90
2021/06/24 11:18:51;;;;;;;;;;;;;;;32.03;48.76;96667.57;127411;1093;114598;-92
2021/06/24 11:22:03;;;;;;;22.45;15.60;;;;;;;31.63;49.99;96661.14;127465;1093;24555;-95
2021/06/24 11:24:35;;;;;;;20.65;15.60;;;;;;;31.65;50.83;96668.94;127421;1093;114999;-91
2021/06/24 11:27:23;;;;;;;18.70;14.65;;;;;;;31.66;50.97;96665.78;127541;1092;28142;-91
2021/06/24 11:29:54;;;;;;;17.58;14.15;;;;;;;31.78;51.24;96669.94;127554;1093;30601;-92
2021/06/24 11:32:38;;;;;;;20.10;14.58;;;;;;;31.82;51.21;96665.97;127549;1091;113983;-92
2021/06/24 11:35:30;;;;;;;20.25;13.68;;;;;;;32.05;51.35;96661.66;127493;1093;26097;-93